createdAt,value
2023-08-26T00:01:38.393Z,97962.81
2023-08-26T00:04:05.310Z,97955.53
2023-08-26T00:06:32.301Z,97934.66
2023-08-26T00:08:59.152Z,97920.44
2023-08-26T00:11:26.024Z,97910.25
2023-08-26T00:13:52.766Z,97898.66
2023-08-26T00:16:19.565Z,97892.41
2023-08-26T00:18:48.300Z,97903.81
2023-08-26T00:21:16.327Z,97923.06
2023-08-26T00:23:43.325Z,97927.66
2023-08-26T00:26:12.346Z,97943.13
2023-08-26T00:28:39.147Z,97956.94
2023-08-26T00:31:06.505Z,97973.06
2023-08-26T00:33:33.184Z,97996.94
2023-08-26T00:36:00.503Z,98067.25
2023-08-26T00:38:28.933Z,98129.75
2023-08-26T00:40:56.218Z,98148.09
2023-08-26T00:43:23.364Z,98106.19
2023-08-26T00:45:54.473Z,98070.41
2023-08-26T00:48:21.579Z,98027.13
2023-08-26T00:50:51.558Z,98020.34
2023-08-26T00:53:18.450Z,98050.78
2023-08-26T00:55:45.374Z,98060.25
2023-08-26T00:58:12.580Z,98072.28
2023-08-26T01:00:40.870Z,98075.13
2023-08-26T01:03:08.279Z,98084.06
2023-08-26T01:05:35.266Z,98059.69
2023-08-26T01:08:06.678Z,98024.72
2023-08-26T01:11:07.609Z,98004.66
2023-08-26T01:13:45.801Z,98013.22
2023-08-26T01:16:15.155Z,97994.53
2023-08-26T01:18:43.223Z,97974.50
2023-08-26T01:21:13.756Z,97985.47
2023-08-26T01:23:43.349Z,97968.31
2023-08-26T01:26:10.164Z,97971.81
2023-08-26T01:28:37.830Z,97981.47
2023-08-26T01:31:10.792Z,98005.31
2023-08-26T01:34:06.212Z,98017.59
2023-08-26T01:36:37.760Z,98010.25
2023-08-26T01:39:06.078Z,98001.09
2023-08-26T01:41:33.290Z,97997.22
2023-08-26T01:44:00.490Z,97983.09
2023-08-26T01:46:40.222Z,97990.19
2023-08-26T01:49:07.097Z,98013.19
2023-08-26T01:51:34.764Z,98017.00
2023-08-26T01:54:06.377Z,98018.88
2023-08-26T01:56:33.913Z,98026.66
2023-08-26T01:59:00.725Z,98024.34
2023-08-26T02:01:27.789Z,98022.66
2023-08-26T02:03:55.122Z,98016.81
2023-08-26T02:06:22.176Z,98019.84
2023-08-26T02:08:48.811Z,98024.47
2023-08-26T02:11:15.613Z,98020.63
2023-08-26T02:13:42.872Z,98021.41
2023-08-26T02:16:09.656Z,98022.59
2023-08-26T02:18:36.589Z,98012.72
2023-08-26T02:21:03.417Z,98009.81
2023-08-26T02:23:30.265Z,98008.34
2023-08-26T02:25:57.201Z,98010.38
2023-08-26T02:28:24.225Z,98003.53
2023-08-26T02:30:51.179Z,97991.34
2023-08-26T02:33:17.882Z,98006.19
2023-08-26T02:35:47.989Z,98012.34
2023-08-26T02:38:15.663Z,98015.16
2023-08-26T02:40:42.468Z,98013.69
2023-08-26T02:43:10.055Z,98004.97
2023-08-26T02:45:37.086Z,98018.94
2023-08-26T02:48:04.325Z,98013.13
2023-08-26T02:50:31.504Z,98006.81
2023-08-26T02:52:58.601Z,98012.25
2023-08-26T02:55:25.253Z,98018.66
2023-08-26T02:57:51.934Z,98014.00
2023-08-26T03:00:18.570Z,98004.31
2023-08-26T03:02:45.488Z,98002.13
2023-08-26T03:05:12.238Z,98008.19
2023-08-26T03:07:38.969Z,98009.00
2023-08-26T03:10:06.139Z,98012.09
2023-08-26T03:12:33.877Z,98028.72
2023-08-26T03:15:00.528Z,98023.56
2023-08-26T03:17:27.356Z,98031.41
2023-08-26T03:19:54.295Z,98033.88
2023-08-26T03:22:20.988Z,98030.13
2023-08-26T03:24:47.840Z,98040.47
2023-08-26T03:27:15.592Z,98033.31
2023-08-26T03:29:42.420Z,98038.75
2023-08-26T03:32:09.328Z,98035.78
2023-08-26T03:34:35.934Z,98038.41
2023-08-26T03:37:03.120Z,98032.91
2023-08-26T03:39:31.100Z,98046.91
2023-08-26T03:41:57.773Z,98047.88
2023-08-26T03:44:24.416Z,98049.16
2023-08-26T03:46:51.254Z,98055.78
2023-08-26T03:49:17.917Z,98065.53
2023-08-26T03:51:44.866Z,98066.34
2023-08-26T03:54:12.239Z,98079.03
2023-08-26T03:56:39.109Z,98066.34
2023-08-26T03:59:05.781Z,98062.75
2023-08-26T04:01:32.571Z,98064.34
2023-08-26T04:03:59.382Z,98060.34
2023-08-26T04:06:26.428Z,98057.44
2023-08-26T04:08:53.225Z,98051.44
2023-08-26T04:11:20.429Z,98050.38
2023-08-26T04:13:47.287Z,98051.13
2023-08-26T04:16:16.855Z,98062.19
2023-08-26T04:18:46.541Z,98056.38
2023-08-26T04:21:13.575Z,98057.44
2023-08-26T04:23:40.494Z,98057.94
2023-08-26T04:26:07.309Z,98066.00
2023-08-26T04:28:34.047Z,98053.06
2023-08-26T04:31:01.482Z,98056.31
2023-08-26T04:33:28.421Z,98054.72
2023-08-26T04:35:55.185Z,98057.56
2023-08-26T04:38:22.046Z,98056.69
2023-08-26T04:40:48.738Z,98061.63
2023-08-26T04:43:15.393Z,98074.56
2023-08-26T04:45:42.313Z,98074.28
2023-08-26T04:48:10.424Z,98071.94
2023-08-26T04:50:38.026Z,98072.88
2023-08-26T04:53:05.277Z,98070.59
2023-08-26T04:55:34.006Z,98087.69
2023-08-26T04:58:02.755Z,98092.09
2023-08-26T05:00:29.982Z,98096.03
2023-08-26T05:02:56.830Z,98093.66
2023-08-26T05:05:23.562Z,98089.88
2023-08-26T05:07:50.426Z,98085.25
2023-08-26T05:10:17.128Z,98095.25
2023-08-26T05:12:43.886Z,98081.81
2023-08-26T05:15:10.781Z,98083.63
2023-08-26T05:17:37.479Z,98074.13
2023-08-26T05:20:05.444Z,98084.88
2023-08-26T05:22:32.274Z,98085.09
2023-08-26T05:24:59.077Z,98090.91
2023-08-26T05:27:27.976Z,98079.31
2023-08-26T05:29:55.900Z,98085.00
2023-08-26T05:32:23.448Z,98082.91
2023-08-26T05:34:50.108Z,98080.44
2023-08-26T05:37:18.442Z,98085.97
2023-08-26T05:39:45.122Z,98099.63
2023-08-26T05:42:11.938Z,98076.66
2023-08-26T05:44:39.368Z,98098.19
2023-08-26T05:47:07.396Z,98094.84
2023-08-26T05:49:34.092Z,98089.41
2023-08-26T05:52:00.894Z,98094.22
2023-08-26T05:54:27.763Z,98096.00
2023-08-26T05:56:54.853Z,98097.00
2023-08-26T05:59:21.590Z,98097.72
2023-08-26T06:01:48.407Z,98096.34
2023-08-26T06:04:15.143Z,98103.06
2023-08-26T06:06:42.674Z,98102.63
2023-08-26T06:09:10.644Z,98104.59
2023-08-26T06:11:39.292Z,98098.44
2023-08-26T06:14:06.500Z,98090.03
2023-08-26T06:16:33.975Z,98090.59
2023-08-26T06:19:00.656Z,98100.72
2023-08-26T06:21:27.419Z,98089.50
2023-08-26T06:23:54.496Z,98099.72
2023-08-26T06:26:21.259Z,98094.84
2023-08-26T06:28:47.963Z,98089.38
2023-08-26T06:31:14.734Z,98091.03
2023-08-26T06:33:44.853Z,98088.16
2023-08-26T06:36:11.637Z,98095.47
2023-08-26T06:38:38.348Z,98092.50
2023-08-26T06:41:05.103Z,98085.44
2023-08-26T06:43:31.889Z,98077.22
2023-08-26T06:46:00.102Z,98082.81
2023-08-26T06:48:28.715Z,98080.16
2023-08-26T06:50:55.719Z,98084.31
2023-08-26T06:53:22.575Z,98096.63
2023-08-26T06:55:51.886Z,98101.06
2023-08-26T06:58:20.885Z,98100.31
2023-08-26T07:00:48.331Z,98087.59
2023-08-26T07:03:15.065Z,98094.91
2023-08-26T07:05:46.815Z,98084.88
2023-08-26T07:08:16.876Z,98088.06
2023-08-26T07:10:46.000Z,98083.78
2023-08-26T07:13:13.812Z,98077.47
2023-08-26T07:15:40.761Z,98073.19
2023-08-26T07:18:07.791Z,98067.09
2023-08-26T07:20:34.655Z,98075.53
2023-08-26T07:23:01.315Z,98074.00
2023-08-26T07:25:28.160Z,98078.06
2023-08-26T07:27:55.040Z,98081.25
2023-08-26T07:30:22.312Z,98071.81
2023-08-26T07:32:48.990Z,98074.78
2023-08-26T07:35:15.820Z,98068.94
2023-08-26T07:37:42.435Z,98071.38
2023-08-26T07:40:15.062Z,98071.38
2023-08-26T07:42:43.108Z,98082.56
2023-08-26T07:45:10.596Z,98080.75
2023-08-26T07:50:07.898Z,98087.41
2023-08-26T07:52:34.662Z,98090.69
2023-08-26T07:55:01.331Z,98098.03
2023-08-26T07:57:28.072Z,98101.78
2023-08-26T07:59:55.104Z,98093.72
2023-08-26T08:02:21.749Z,98097.66
2023-08-26T08:04:49.120Z,98097.84
2023-08-26T08:07:15.756Z,98097.66
2023-08-26T08:09:42.519Z,98102.31
2023-08-26T08:12:10.620Z,98101.81
2023-08-26T08:14:37.680Z,98087.72
2023-08-26T08:17:04.785Z,98092.34
2023-08-26T08:19:31.776Z,98080.41
2023-08-26T08:21:58.519Z,98076.41
2023-08-26T08:24:25.378Z,98085.53
2023-08-26T08:26:52.139Z,98079.03
2023-08-26T08:29:19.217Z,98083.16
2023-08-26T08:31:45.936Z,98088.06
2023-08-26T08:34:12.697Z,98081.03
2023-08-26T08:36:39.306Z,98077.50
2023-08-26T08:39:07.378Z,98082.38
2023-08-26T08:41:38.941Z,98082.56
2023-08-26T08:44:14.829Z,98073.69
2023-08-26T08:46:42.203Z,98067.31
2023-08-26T08:49:09.763Z,98058.41
2023-08-26T08:51:37.824Z,98059.22
2023-08-26T08:54:06.317Z,98067.50
2023-08-26T08:56:36.100Z,98062.25
2023-08-26T08:59:03.462Z,98051.72
2023-08-26T09:01:31.964Z,98058.63
2023-08-26T09:03:58.752Z,98052.91
2023-08-26T09:06:25.604Z,98058.56
2023-08-26T09:08:52.701Z,98063.00
2023-08-26T09:11:19.412Z,98062.13
2023-08-26T09:13:46.649Z,98073.63
2023-08-26T09:16:13.572Z,98072.84
2023-08-26T09:18:40.771Z,98072.47
2023-08-26T09:21:11.651Z,98076.13
2023-08-26T09:23:43.165Z,98067.03
2023-08-26T09:26:11.493Z,98060.19
2023-08-26T09:28:38.795Z,98053.91
2023-08-26T09:31:08.978Z,98057.38
2023-08-26T09:33:35.872Z,98064.09
2023-08-26T09:38:48.377Z,98071.19
2023-08-26T09:41:20.749Z,98053.06
2023-08-26T09:43:48.458Z,98045.25
2023-08-26T09:46:22.111Z,98052.41
2023-08-26T09:48:49.931Z,98054.53
2023-08-26T09:51:29.323Z,98057.00
2023-08-26T09:53:56.347Z,98049.13
2023-08-26T09:56:25.107Z,98045.53
2023-08-26T09:58:53.129Z,98043.34
2023-08-26T10:01:24.233Z,98044.44
2023-08-26T10:03:54.751Z,98038.16
2023-08-26T10:06:26.730Z,98036.72
2023-08-26T10:09:01.350Z,98029.63
2023-08-26T10:11:30.244Z,98020.50
2023-08-26T10:13:59.698Z,98002.28
2023-08-26T10:16:35.630Z,98001.47
2023-08-26T10:19:04.918Z,97997.03
2023-08-26T10:21:33.433Z,97995.81
2023-08-26T10:24:01.290Z,97999.47
2023-08-26T10:26:28.419Z,97997.88
2023-08-26T10:28:58.931Z,98003.94
2023-08-26T10:31:37.226Z,98004.38
2023-08-26T10:34:06.981Z,98003.78
2023-08-26T10:36:40.886Z,97992.19
2023-08-26T10:39:16.709Z,97989.38
2023-08-26T10:42:19.846Z,97991.81
2023-08-26T10:44:57.915Z,97982.88
2023-08-26T10:47:39.706Z,97989.13
2023-08-26T10:50:23.813Z,97979.81
2023-08-26T10:52:53.440Z,97968.84
2023-08-26T10:55:26.299Z,97968.06
2023-08-26T10:58:08.269Z,97964.03
2023-08-26T11:00:36.369Z,97960.97
2023-08-26T11:03:04.441Z,97947.81
2023-08-26T11:05:31.886Z,97958.53
2023-08-26T11:07:58.955Z,97951.22
2023-08-26T11:10:30.951Z,97945.38
2023-08-26T11:12:58.359Z,97939.72
2023-08-26T11:15:25.398Z,97929.16
2023-08-26T11:17:52.512Z,97927.75
2023-08-26T11:20:19.699Z,97931.78
2023-08-26T11:22:47.005Z,97923.06
2023-08-26T11:25:17.766Z,97923.44
2023-08-26T11:27:44.859Z,97907.00
2023-08-26T11:30:12.388Z,97900.31
2023-08-26T11:32:40.672Z,97898.44
2023-08-26T11:35:09.708Z,97888.03
2023-08-26T11:37:48.143Z,97876.28
2023-08-26T11:40:16.853Z,97880.97
2023-08-26T11:42:48.769Z,97894.75
2023-08-26T11:45:15.426Z,97897.72
2023-08-26T11:47:42.419Z,97901.34
2023-08-26T11:50:12.754Z,97897.88
2023-08-26T11:52:40.941Z,97895.41
2023-08-26T11:55:09.902Z,97902.06
2023-08-26T11:57:39.049Z,97902.50
2023-08-26T12:00:18.043Z,97905.56
2023-08-26T12:02:49.431Z,97903.31
2023-08-26T12:05:17.184Z,97904.19
2023-08-26T12:07:48.980Z,97895.06
2023-08-26T12:10:19.302Z,97888.38
2023-08-26T12:12:47.708Z,97867.25
2023-08-26T12:15:20.476Z,97862.19
2023-08-26T12:17:52.508Z,97851.50
2023-08-26T12:20:27.280Z,97847.03
2023-08-26T12:22:55.646Z,97855.19
2023-08-26T12:25:27.611Z,97845.69
2023-08-26T12:28:04.896Z,97857.47
2023-08-26T12:30:31.609Z,97868.44
2023-08-26T12:32:58.335Z,97873.91
2023-08-26T12:35:25.102Z,97874.94
2023-08-26T12:37:51.823Z,97871.09
2023-08-26T12:40:18.550Z,97853.66
2023-08-26T12:42:45.185Z,97845.34
2023-08-26T12:45:12.005Z,97828.13
2023-08-26T12:47:38.810Z,97791.41
2023-08-26T12:50:06.110Z,97748.19
2023-08-26T12:52:32.836Z,97743.16
2023-08-26T12:54:59.563Z,97759.75
2023-08-26T12:57:26.212Z,97777.03
2023-08-26T12:59:52.992Z,97781.72
2023-08-26T13:02:19.700Z,97773.59
2023-08-26T13:04:46.546Z,97763.25
2023-08-26T13:07:13.362Z,97760.41
2023-08-26T13:09:40.500Z,97766.03
2023-08-26T13:12:07.647Z,97760.00
2023-08-26T13:14:34.553Z,97737.09
2023-08-26T13:17:01.253Z,97734.66
2023-08-26T13:19:27.961Z,97725.50
2023-08-26T13:21:54.882Z,97726.75
2023-08-26T13:24:21.608Z,97724.53
2023-08-26T13:26:48.388Z,97717.44
2023-08-26T13:29:15.237Z,97712.00
2023-08-26T13:31:41.971Z,97694.13
2023-08-26T13:34:08.751Z,97685.63
2023-08-26T13:36:50.371Z,97701.25
2023-08-26T13:39:17.971Z,97719.75
2023-08-26T13:41:44.714Z,97719.81
2023-08-26T13:44:11.491Z,97720.25
2023-08-26T13:46:38.230Z,97721.34
2023-08-26T13:49:05.026Z,97738.94
2023-08-26T13:51:31.706Z,97778.97
2023-08-26T13:54:00.231Z,97809.50
2023-08-26T13:56:27.476Z,97868.91
2023-08-26T13:58:54.185Z,97900.00
2023-08-26T14:01:21.031Z,97851.09
2023-08-26T14:03:47.821Z,97869.97
2023-08-26T14:06:14.501Z,97872.28
2023-08-26T14:08:41.214Z,97873.53
2023-08-26T14:11:08.489Z,97873.00
2023-08-26T14:13:35.436Z,97873.31
2023-08-26T14:16:02.093Z,97903.22
2023-08-26T14:18:28.846Z,97899.19
2023-08-26T14:20:55.584Z,97888.97
2023-08-26T14:23:22.399Z,97892.31
2023-08-26T14:25:49.524Z,97906.94
2023-08-26T14:28:16.909Z,97908.06
2023-08-26T14:30:43.542Z,97898.91
2023-08-26T14:33:10.456Z,97899.19
2023-08-26T14:35:37.114Z,97864.66
2023-08-26T14:38:04.675Z,97851.44
2023-08-26T14:40:31.787Z,97851.91
2023-08-26T14:42:58.744Z,97862.28
2023-08-26T14:45:26.360Z,97865.84
2023-08-26T14:47:53.174Z,97886.28
2023-08-26T14:50:19.913Z,97887.53
2023-08-26T14:52:46.993Z,97882.94
2023-08-26T14:55:14.144Z,97867.69
2023-08-26T14:57:41.122Z,97853.28
2023-08-26T15:00:11.086Z,97872.63
2023-08-26T15:02:38.409Z,97871.06
2023-08-26T15:05:05.555Z,97890.06
2023-08-26T15:07:32.575Z,97894.63
2023-08-26T15:10:00.320Z,97883.75
2023-08-26T15:12:28.903Z,97891.44
2023-08-26T15:14:56.627Z,97892.47
2023-08-26T15:17:24.788Z,97903.44
2023-08-26T15:19:52.806Z,97919.59
2023-08-26T15:22:20.446Z,97906.63
2023-08-26T15:24:47.090Z,97911.31
2023-08-26T15:27:13.775Z,97904.06
2023-08-26T15:29:40.414Z,97890.13
2023-08-26T15:32:07.258Z,97882.66
2023-08-26T15:34:33.980Z,97873.09
2023-08-26T15:37:00.725Z,97861.38
2023-08-26T15:39:27.404Z,97858.84
2023-08-26T15:41:54.127Z,97855.19
2023-08-26T15:44:20.892Z,97877.31
2023-08-26T15:46:47.654Z,97874.06
2023-08-26T15:49:14.281Z,97882.28
2023-08-26T15:51:41.044Z,97879.28
2023-08-26T15:54:08.128Z,97889.88
2023-08-26T15:56:34.806Z,97890.34
2023-08-26T15:59:01.445Z,97888.19
2023-08-26T16:01:30.249Z,97884.41
2023-08-26T16:03:57.399Z,97889.66
2023-08-26T16:06:24.275Z,97890.25
2023-08-26T16:08:51.730Z,97889.63
2023-08-26T16:11:18.605Z,97883.66
2023-08-26T16:13:45.712Z,97884.75
2023-08-26T16:16:12.619Z,97877.91
2023-08-26T16:18:39.653Z,97881.44
2023-08-26T16:21:09.259Z,97887.34
2023-08-26T16:23:37.106Z,97877.66
2023-08-26T16:26:03.749Z,97891.81
2023-08-26T16:28:30.507Z,97890.19
2023-08-26T16:30:57.746Z,97892.81
2023-08-26T16:33:24.662Z,97888.75
2023-08-26T16:35:51.810Z,97895.19
2023-08-26T16:38:20.649Z,97907.91
2023-08-26T16:40:52.034Z,97903.00
2023-08-26T16:43:18.762Z,97897.16
2023-08-26T16:45:47.307Z,97904.59
2023-08-26T16:48:14.133Z,97903.34
2023-08-26T16:50:42.530Z,97900.72
2023-08-26T16:53:09.637Z,97898.50
2023-08-26T16:55:36.972Z,97899.88
2023-08-26T16:58:03.885Z,97900.03
2023-08-26T17:00:30.674Z,97896.19
2023-08-26T17:02:57.640Z,97891.94
2023-08-26T17:05:24.787Z,97894.75
2023-08-26T17:07:51.663Z,97895.31
2023-08-26T17:10:18.423Z,97888.44
2023-08-26T17:12:46.910Z,97898.38
2023-08-26T17:15:13.843Z,97887.09
2023-08-26T17:17:40.635Z,97885.09
2023-08-26T17:20:07.973Z,97894.22
2023-08-26T17:22:35.312Z,97898.84
2023-08-26T17:25:02.012Z,97895.88
2023-08-26T17:27:33.054Z,97908.44
2023-08-26T17:29:59.846Z,97912.47
2023-08-26T17:32:26.663Z,97917.38
2023-08-26T17:34:53.481Z,97924.75
2023-08-26T17:37:20.938Z,97926.63
2023-08-26T17:39:47.823Z,97921.88
2023-08-26T17:42:14.545Z,97918.78
2023-08-26T17:44:41.316Z,97919.25
2023-08-26T17:47:08.066Z,97917.22
2023-08-26T17:49:34.779Z,97912.94
2023-08-26T17:52:01.480Z,97919.97
2023-08-26T17:54:28.248Z,97915.09
2023-08-26T17:56:54.991Z,97915.50
2023-08-26T17:59:21.762Z,97911.31
2023-08-26T18:01:48.413Z,97904.88
2023-08-26T18:04:15.198Z,97906.69
2023-08-26T18:06:42.639Z,97916.09
2023-08-26T18:09:11.086Z,97909.00
2023-08-26T18:11:37.744Z,97909.47
2023-08-26T18:14:04.828Z,97903.19
2023-08-26T18:16:31.824Z,97911.31
2023-08-26T18:18:58.531Z,97895.69
2023-08-26T18:21:25.261Z,97906.88
2023-08-26T18:23:52.024Z,97905.78
2023-08-26T18:26:18.647Z,97915.22
2023-08-26T18:28:45.380Z,97914.16
2023-08-26T18:31:12.044Z,97919.53
2023-08-26T18:33:38.785Z,97915.56
2023-08-26T18:36:06.012Z,97918.63
2023-08-26T18:38:32.707Z,97915.59
2023-08-26T18:41:00.688Z,97915.94
2023-08-26T18:43:27.838Z,97915.16
2023-08-26T18:45:56.289Z,97913.81
2023-08-26T18:48:22.969Z,97917.78
2023-08-26T18:51:00.659Z,97900.97
2023-08-26T18:53:27.922Z,97921.47
2023-08-26T18:55:55.441Z,97921.09
2023-08-26T18:58:25.605Z,97924.91
2023-08-26T19:00:55.700Z,97922.75
2023-08-26T19:03:22.741Z,97930.97
2023-08-26T19:05:51.020Z,97937.13
2023-08-26T19:08:18.541Z,97931.34
2023-08-26T19:10:47.027Z,97945.25
2023-08-26T19:13:14.133Z,97939.50
2023-08-26T19:15:41.980Z,97951.13
2023-08-26T19:18:09.711Z,97954.56
2023-08-26T19:20:39.866Z,97967.13
2023-08-26T19:23:07.304Z,97958.69
2023-08-26T19:25:35.645Z,97949.69
2023-08-26T19:28:02.567Z,97954.03
2023-08-26T19:30:29.193Z,97964.53
2023-08-26T19:32:56.831Z,97970.56
2023-08-26T19:35:24.656Z,97967.41
2023-08-26T19:37:51.501Z,97970.47
2023-08-26T19:40:18.553Z,97973.38
2023-08-26T19:42:45.332Z,97968.13
2023-08-26T19:45:12.147Z,97969.75
2023-08-26T19:47:39.429Z,97955.31
2023-08-26T19:50:06.655Z,97941.19
2023-08-26T19:52:34.520Z,97950.94
2023-08-26T19:55:05.413Z,97953.41
2023-08-26T19:57:32.223Z,97962.50
2023-08-26T19:59:59.704Z,97956.19
2023-08-26T20:02:26.815Z,97954.88
2023-08-26T20:04:53.601Z,97951.78
2023-08-26T20:07:20.516Z,97942.47
2023-08-26T20:09:47.290Z,97958.47
2023-08-26T20:12:14.214Z,97949.81
2023-08-26T20:14:41.698Z,97956.84
2023-08-26T20:17:09.872Z,97959.38
2023-08-26T20:19:38.459Z,97955.94
2023-08-26T20:22:06.285Z,97955.31
2023-08-26T20:24:33.037Z,97946.69
2023-08-26T20:27:00.004Z,97939.50
2023-08-26T20:29:26.651Z,97927.66
2023-08-26T20:31:54.136Z,97918.38
2023-08-26T20:34:20.885Z,97907.38
2023-08-26T20:36:49.294Z,97890.25
2023-08-26T20:39:16.299Z,97887.06
2023-08-26T20:41:43.609Z,97882.81
2023-08-26T20:44:10.417Z,97871.53
2023-08-26T20:46:37.468Z,97886.50
2023-08-26T20:49:04.279Z,97888.94
2023-08-26T20:51:31.778Z,97884.47
2023-08-26T20:53:58.680Z,97885.50
2023-08-26T20:56:27.187Z,97883.22
2023-08-26T20:58:57.412Z,97866.75
2023-08-26T21:01:25.711Z,97861.59
2023-08-26T21:03:53.275Z,97862.31
2023-08-26T21:06:20.572Z,97865.31
2023-08-26T21:08:47.277Z,97873.03
2023-08-26T21:11:14.025Z,97870.44
2023-08-26T21:13:41.380Z,97868.69
2023-08-26T21:16:08.504Z,97880.44
2023-08-26T21:18:35.768Z,97880.41
2023-08-26T21:21:03.871Z,97886.53
2023-08-26T21:23:30.718Z,97878.66
2023-08-26T21:25:57.704Z,97879.84
2023-08-26T21:28:27.729Z,97883.91
2023-08-26T21:30:55.110Z,97887.88
2023-08-26T21:33:23.060Z,97894.03
2023-08-26T21:35:50.624Z,97895.00
2023-08-26T21:38:17.392Z,97890.41
2023-08-26T21:40:44.590Z,97892.66
2023-08-26T21:43:14.349Z,97882.28
2023-08-26T21:45:41.422Z,97870.50
2023-08-26T21:48:08.493Z,97848.28
2023-08-26T21:50:43.013Z,97849.34
2023-08-26T21:53:09.760Z,97829.06
2023-08-26T21:55:36.540Z,97815.59
2023-08-26T21:58:07.817Z,97817.78
2023-08-26T22:00:35.718Z,97810.44
2023-08-26T22:03:03.524Z,97790.72
2023-08-26T22:05:32.901Z,97772.19
2023-08-26T22:08:00.504Z,97766.59
2023-08-26T22:10:27.595Z,97737.22
2023-08-26T22:12:55.812Z,97740.44
2023-08-26T22:15:23.941Z,97761.59
2023-08-26T22:17:51.066Z,97762.78
2023-08-26T22:20:17.918Z,97733.13
2023-08-26T22:22:45.581Z,97714.59
2023-08-26T22:25:12.799Z,97688.81
2023-08-26T22:27:41.419Z,97670.28
2023-08-26T22:30:09.637Z,97710.03
2023-08-26T22:32:37.846Z,97732.09
2023-08-26T22:35:05.302Z,97724.44
2023-08-26T22:37:35.486Z,97715.19
2023-08-26T22:40:05.095Z,97711.28
2023-08-26T22:42:33.161Z,97713.38
2023-08-26T22:45:00.240Z,97701.00
2023-08-26T22:47:29.997Z,97668.31
2023-08-26T22:50:00.041Z,97688.94
2023-08-26T22:52:26.696Z,97693.81
2023-08-26T22:54:53.665Z,97682.69
2023-08-26T22:57:21.033Z,97691.59
2023-08-26T22:59:47.646Z,97689.38
2023-08-26T23:02:14.428Z,97692.75
2023-08-26T23:04:41.951Z,97699.06
2023-08-26T23:07:09.428Z,97701.47
2023-08-26T23:09:36.525Z,97680.69
2023-08-26T23:12:04.857Z,97690.94
2023-08-26T23:14:31.711Z,97687.72
2023-08-26T23:16:58.514Z,97679.19
2023-08-26T23:19:25.234Z,97668.91
2023-08-26T23:21:57.033Z,97685.63
2023-08-26T23:24:24.150Z,97682.78
2023-08-26T23:26:52.136Z,97666.19
2023-08-26T23:29:19.026Z,97673.66
2023-08-26T23:31:45.788Z,97650.75
2023-08-26T23:34:18.813Z,97613.63
2023-08-26T23:36:47.294Z,97636.59
2023-08-26T23:39:14.469Z,97634.41
2023-08-26T23:41:42.265Z,97645.53
2023-08-26T23:44:09.238Z,97639.59
2023-08-26T23:46:36.212Z,97642.53
2023-08-26T23:49:03.797Z,97664.72
2023-08-26T23:51:30.973Z,97685.47
2023-08-26T23:53:58.143Z,97678.72
2023-08-26T23:56:24.930Z,97679.13
2023-08-26T23:58:52.024Z,97696.75
